x

Port Orford - 15 Nm West Of Port Orford, Or (46015) Wave Buoy

1:50pm - Sat 1st Oct 2016 All times are PDT. -7 hours from GMT.

  • Sig Wave height 6.6ft
  • Swell Direction
  • Peak Period 10s
  • Average Period 7s
  • Wind
    20mph, 25mph gusts
  • Sea Temp 52°f
  • Air Temp 54°f
  • Sea Pressure 1018.2mb
  • Port Orford - 15 Nm West Of Port Orford, Or
  • Port Orford - 15 Nm West Of Port Orford, Or

More Historic Weather Station data

Upgrade to MSW Pro to gain access to the past 30 days of data for over 8000 Wavebouys and Weather Stations around the globe.

Join Pro

Comparision Forecast

View Surf forecast
   
Sat 10/01 1:50pm 6.5ft 10s 7s 20 25 mph 1018.2mb 52f 54f
12:50pm 7ft 10s 6s 20 22 mph 1018.3mb 52f 53f
11:50am 6.5ft 11s 6s 20 25 mph 1018.5mb 52f 53f
10:50am 6.5ft 10s 7s 16 18 mph 1018.6mb 52f 53f
9:50am 5.5ft 11s 6s 16 18 mph 1018.5mb 52f 54f
8:50am 5ft 10s 6s 13 16 mph 1018.1mb 52f 54f
7:50am 5ft 11s 6s 13 16 mph 1017.8mb 52f 53f
6:50am 5ft 10s 6s 13 18 mph 1017.2mb 52f 54f
5:50am 4.5ft 11s 6s 11 13 mph 1016.7mb 52f 53f
4:50am 4.5ft 11s 5s 11 13 mph 1016.4mb 52f 54f
3:50am 5ft 11s 6s 16 18 mph 1016.4mb 52f 53f
2:50am 5ft 11s 5s 16 20 mph 1016.4mb 52f 53f
1:50am 5ft 10s 5s 20 22 mph 1016.3mb 52f 53f
12:50am 5ft 11s 5s 22 27 mph 1016.2mb 52f 53f
Fri 09/30 11:50pm 4.5ft 11s 5s 22 27 mph 1016.5mb 52f 53f
10:50pm 5ft 9s 6s 20 25 mph 1016.5mb 52f 53f
9:50pm 4.5ft 9s 5s 20 25 mph 1016.8mb 52f 53f
8:50pm 4.5ft 11s 5s 20 22 mph 1016.9mb 52f 53f
7:50pm 4.5ft 10s 5s 20 22 mph 1016.9mb 52f 54f
6:50pm 4.5ft 11s 5s 20 25 mph 1017.3mb 52f 54f
5:50pm 4.5ft 9s 5s 18 22 mph 1017.6mb 52f 53f
4:50pm 4.5ft 16s 5s 20 27 mph 1017.9mb 52f 54f
3:50pm  -   -   -  20 25 mph 1018.2mb 52f 53f
2:50pm  -   -   -  20 25 mph 1018.3mb 52f 53f
1:50pm  -   -   -  18 20 mph 1018.8mb 52f 53f
12:50pm  -   -   -  20 25 mph 1019.2mb 52f 52f
11:50am  -   -   -  18 22 mph 1019.2mb 52f 53f
10:50am  -   -   -  13 18 mph 1019.1mb 52f 52f
9:50am  -   -   -  16 20 mph 1019mb 51f 52f
8:50am  -   -   -  13 16 mph 1018.8mb 51f 52f
7:50am  -   -   -  7
mph
1018.9mb 51f 52f
6:50am  -   -   -  7 9 mph 1019mb 51f 52f
5:50am  -   -   -  7 9 mph 1018.9mb 51f 51f
4:50am  -   -   -  2 4 mph 1019.1mb 51f 51f
3:50am  -   -   -  2 4 mph 1019.1mb 52f 52f
2:50am  -   -   -  2 4 mph 1019mb 52f 52f
1:50am  -   -   -  2
mph
1019.1mb 52f 52f
12:50am  -   -   -  7
mph
1019.1mb 52f 52f
Thu 09/29 11:50pm  -   -   -  2 4 mph 1019.2mb 52f 52f
10:50pm  -   -   -  4
mph
1019.4mb 52f 52f
9:50pm  -   -   -  7
mph
1019.5mb 52f 53f
8:50pm 4ft 7s 6s 9
mph
1019.3mb 52f 53f
7:50pm 4.5ft 7s 6s 9 11 mph 1019.4mb 52f 54f
6:50pm 4.5ft 7s 6s 9 11 mph 1019.4mb 52f 54f
5:50pm 4.5ft 7s 6s 13 16 mph 1019mb 52f 55f
4:50pm 4.5ft 7s 6s 16 18 mph 1018.8mb 52f 55f
3:50pm 4.5ft 7s 6s 16 18 mph 1019mb 52f 55f
2:50pm 5ft 8s 6s 11 13 mph 1019.3mb 52f 53f
1:50pm 5ft 8s 6s 13 16 mph 1019.4mb 52f 54f
12:50pm 5ft 8s 6s 13
mph
1019.7mb 52f 53f
11:50am 5ft 8s 6s 11 13 mph 1019.8mb 52f 53f
10:50am 5ft 7s 6s 11 13 mph 1019.7mb 52f 53f
9:50am 5.5ft 8s 6s 13 16 mph 1019.2mb 52f 53f
8:50am 5.5ft 8s 6s 11 13 mph 1019.1mb 52f 53f
7:50am 5.5ft 8s 6s 13 16 mph 1018.8mb 52f 52f
6:50am 6ft 8s 6s 16 18 mph 1018.2mb 52f 53f
5:50am 6ft 7s 6s 18 20 mph 1017.9mb 52f 54f
4:50am 6ft 8s 6s 18 20 mph 1017.5mb 52f 54f
3:50am 6.5ft 8s 6s 18 20 mph 1017.3mb 52f 54f
2:50am 6ft 8s 6s 18 22 mph 1016.9mb 52f 54f
1:50am 6ft 8s 6s 18 22 mph 1016.6mb 52f 54f
12:50am 6.5ft 9s 6s 18 22 mph 1016.3mb 52f 54f
Wed 09/28 11:50pm 7ft 8s 6s 18 22 mph 1016.1mb 52f 54f
10:50pm 7ft 8s 6s 18 20 mph 1016.1mb 52f 53f
9:50pm 7.5ft 8s 6s 16 18 mph 1016.2mb 52f 53f
8:50pm 7ft 8s 6s 18 22 mph 1016mb 52f 54f
7:50pm 7ft 8s 6s 18 22 mph 1015.9mb 52f 54f
6:50pm 6.5ft 8s 6s 20 25 mph 1015.8mb 52f 55f
5:50pm 7ft 8s 6s 22 25 mph 1015.8mb 52f 55f
4:50pm 7ft 8s 6s 22 27 mph 1015.6mb 52f 55f
3:50pm 7.5ft 8s 6s 22 27 mph 1015.9mb 52f 55f
2:50pm 7ft 8s 6s 27 31 mph 1015.8mb 52f 55f
1:50pm 7ft 8s 6s 25 29 mph 1016.3mb 52f 55f
12:50pm 8ft 8s 6s 25 27 mph 1016.4mb 52f 54f
11:50am 8ft 8s 6s 25 27 mph 1016.4mb 52f 54f
10:50am 8ft 9s 6s 25 29 mph 1016.7mb 51f 53f
9:50am 8ft 9s 6s 27 34 mph 1016.6mb 51f 54f
8:50am 8ft 9s 6s 25 29 mph 1016.6mb 51f 55f
7:50am 8ft 8s 6s 22 25 mph 1016.5mb 51f 54f
6:50am 8ft 8s 6s 22 25 mph 1016.7mb 51f 54f
5:50am 9ft 9s 6s 22 25 mph 1016.6mb 51f 54f
4:50am 9.5ft 8s 6s 22 27 mph 1016.3mb 51f 54f
3:50am 9ft 9s 6s 25 29 mph 1016.3mb 51f 54f
2:50am 9ft 8s 6s 25 29 mph 1016.3mb 51f 55f
1:50am 10ft 8s 7s 25 31 mph 1016.3mb 51f 55f
12:50am 8.5ft 8s 6s 22 27 mph 1016.4mb 51f 55f
Tue 09/27 11:50pm 10ft 8s 7s 22 25 mph 1016.4mb 51f 55f
10:50pm 9ft 8s 7s 22 25 mph 1016.6mb 51f 55f
9:50pm 9ft 8s 6s 22 27 mph 1016.7mb 51f 55f